createdAt,value
2017-07-18T00:01:13.725Z,3.20
2017-07-18T00:03:42.869Z,2.90
2017-07-18T00:06:12.045Z,3.47
2017-07-18T00:08:41.183Z,3.40
2017-07-18T00:11:10.360Z,3.53
2017-07-18T00:13:39.506Z,3.20
2017-07-18T00:16:08.663Z,3.20
2017-07-18T00:18:37.806Z,3.10
2017-07-18T00:21:06.992Z,3.10
2017-07-18T00:23:36.146Z,3.45
2017-07-18T00:26:05.303Z,3.28
2017-07-18T00:28:34.459Z,3.58
2017-07-18T00:31:03.647Z,3.40
2017-07-18T00:33:32.784Z,3.15
2017-07-18T00:36:01.966Z,3.30
2017-07-18T00:38:31.132Z,3.80
2017-07-18T00:41:00.274Z,3.95
2017-07-18T00:43:29.425Z,3.40
2017-07-18T00:45:58.613Z,4.00
2017-07-18T00:48:27.774Z,3.37
2017-07-18T00:50:56.951Z,3.47
2017-07-18T00:53:26.098Z,3.65
2017-07-18T00:55:55.246Z,3.50
2017-07-18T00:58:24.393Z,3.65
2017-07-18T01:00:53.546Z,3.20
2017-07-18T01:03:22.699Z,3.50
2017-07-18T01:05:51.887Z,4.03
2017-07-18T01:08:21.023Z,3.53
2017-07-18T01:10:50.163Z,3.55
2017-07-18T01:13:19.314Z,3.62
2017-07-18T01:15:48.458Z,4.05
2017-07-18T01:18:17.607Z,3.00
2017-07-18T01:20:46.802Z,3.72
2017-07-18T01:23:15.943Z,3.87
2017-07-18T01:25:45.103Z,3.53
2017-07-18T01:28:14.280Z,3.45
2017-07-18T01:30:43.430Z,4.15
2017-07-18T01:33:12.567Z,4.03
2017-07-18T01:35:42.200Z,3.90
2017-07-18T01:38:11.352Z,4.12
2017-07-18T01:40:40.508Z,3.62
2017-07-18T01:43:09.653Z,3.90
2017-07-18T01:45:38.807Z,3.62
2017-07-18T01:48:07.974Z,3.72
2017-07-18T01:50:37.125Z,4.22
2017-07-18T01:53:06.268Z,4.20
2017-07-18T01:55:35.425Z,4.22
2017-07-18T01:58:04.566Z,3.55
2017-07-18T02:00:33.716Z,3.53
2017-07-18T02:03:02.867Z,3.62
2017-07-18T02:05:32.025Z,3.37
2017-07-18T02:08:01.194Z,3.83
2017-07-18T02:10:30.333Z,3.12
2017-07-18T02:12:59.483Z,3.35
2017-07-18T02:15:28.646Z,3.17
2017-07-18T02:17:57.811Z,4.18
2017-07-18T02:20:26.982Z,3.10
2017-07-18T02:22:56.209Z,3.62
2017-07-18T02:25:25.355Z,3.12
2017-07-18T02:27:55.489Z,3.70
2017-07-18T02:30:24.654Z,3.35
2017-07-18T02:32:53.807Z,3.75
2017-07-18T02:35:22.979Z,3.40
2017-07-18T02:37:52.147Z,3.35
2017-07-18T02:40:21.294Z,3.20
2017-07-18T02:42:50.448Z,3.30
2017-07-18T02:45:19.593Z,3.17
2017-07-18T02:47:48.746Z,3.35
2017-07-18T02:50:17.917Z,2.95
2017-07-18T02:52:47.063Z,3.30
2017-07-18T02:55:16.213Z,3.70
2017-07-18T02:57:45.361Z,3.50
2017-07-18T03:00:14.524Z,3.30
2017-07-18T03:02:43.696Z,3.53
2017-07-18T03:05:12.857Z,3.37
2017-07-18T03:07:41.989Z,3.83
2017-07-18T03:10:11.143Z,3.45
2017-07-18T03:12:40.291Z,3.00
2017-07-18T03:15:09.446Z,3.20
2017-07-18T03:17:38.582Z,3.60
2017-07-18T03:20:07.885Z,3.80
2017-07-18T03:22:37.050Z,3.47
2017-07-18T03:25:06.175Z,3.30
2017-07-18T03:27:35.322Z,3.22
2017-07-18T03:30:04.468Z,3.42
2017-07-18T03:32:33.615Z,3.50
2017-07-18T03:35:02.789Z,3.58
2017-07-18T03:37:31.931Z,3.90
2017-07-18T03:40:01.094Z,4.18
2017-07-18T03:42:30.248Z,3.55
2017-07-18T03:44:59.391Z,4.55
2017-07-18T03:47:28.561Z,3.40
2017-07-18T03:49:57.712Z,4.10
2017-07-18T03:52:26.867Z,3.70
2017-07-18T03:54:56.019Z,2.92
2017-07-18T03:57:25.169Z,3.90
2017-07-18T03:59:54.337Z,3.90
2017-07-18T04:02:23.585Z,3.43
2017-07-18T04:04:52.718Z,3.83
2017-07-18T04:07:21.869Z,3.55
2017-07-18T04:09:51.005Z,3.53
2017-07-18T04:12:20.178Z,3.58
2017-07-18T04:14:49.324Z,3.40
2017-07-18T04:17:18.485Z,3.62
2017-07-18T04:19:47.619Z,3.73
2017-07-18T04:22:16.776Z,3.55
2017-07-18T04:24:45.934Z,3.83
2017-07-18T04:27:15.078Z,3.23
2017-07-18T04:29:44.234Z,3.50
2017-07-18T04:32:13.385Z,3.33
2017-07-18T04:34:42.555Z,4.27
2017-07-18T04:37:11.678Z,3.53
2017-07-18T04:39:40.815Z,3.60
2017-07-18T04:42:09.967Z,3.33
2017-07-18T04:44:39.108Z,3.60
2017-07-18T04:47:08.275Z,3.50
2017-07-18T04:49:37.412Z,3.03
2017-07-18T04:52:06.567Z,3.17
2017-07-18T04:54:35.728Z,3.70
2017-07-18T04:57:04.871Z,3.80
2017-07-18T04:59:34.028Z,3.63
2017-07-18T05:02:03.151Z,2.90
2017-07-18T05:04:32.323Z,3.63
2017-07-18T05:07:01.458Z,3.23
2017-07-18T05:09:30.593Z,3.27
2017-07-18T05:11:59.751Z,3.33
2017-07-18T05:14:28.898Z,3.33
2017-07-18T05:16:58.066Z,3.50
2017-07-18T05:19:27.206Z,3.33
2017-07-18T05:21:56.351Z,3.67
2017-07-18T05:24:25.490Z,3.87
2017-07-18T05:26:54.653Z,3.73
2017-07-18T05:29:23.771Z,3.57
2017-07-18T05:31:52.924Z,4.20
2017-07-18T05:34:22.057Z,3.53
2017-07-18T05:36:51.537Z,3.23
2017-07-18T05:39:20.652Z,3.50
2017-07-18T05:41:49.785Z,3.23
2017-07-18T05:44:18.930Z,4.30
2017-07-18T05:46:48.072Z,3.90
2017-07-18T05:49:17.219Z,3.90
2017-07-18T05:51:46.371Z,3.80
2017-07-18T05:54:15.515Z,3.80
2017-07-18T05:56:44.681Z,3.60
2017-07-18T05:59:13.835Z,3.40
2017-07-18T06:01:42.974Z,3.80
2017-07-18T06:04:12.143Z,3.40
2017-07-18T06:06:41.329Z,4.07
2017-07-18T06:09:10.478Z,3.90
2017-07-18T06:11:39.624Z,3.90
2017-07-18T06:14:08.774Z,4.30
2017-07-18T06:16:37.918Z,3.60
2017-07-18T06:19:07.056Z,3.90
2017-07-18T06:21:37.307Z,4.30
2017-07-18T06:24:06.436Z,4.63
2017-07-18T06:26:35.583Z,4.63
2017-07-18T06:29:04.726Z,4.40
2017-07-18T06:31:33.876Z,4.27
2017-07-18T06:34:03.015Z,4.70
2017-07-18T06:36:32.173Z,4.90
2017-07-18T06:39:01.331Z,4.10
2017-07-18T06:41:30.465Z,4.40
2017-07-18T06:43:59.632Z,5.10
2017-07-18T06:46:28.749Z,4.43
2017-07-18T06:48:57.895Z,4.73
2017-07-18T06:51:27.056Z,5.03
2017-07-18T06:53:56.213Z,4.40
2017-07-18T06:56:25.370Z,4.43
2017-07-18T06:58:54.508Z,4.17
2017-07-18T07:01:23.647Z,5.70
2017-07-18T07:03:52.811Z,4.90
2017-07-18T07:06:22.000Z,5.40
2017-07-18T07:08:51.141Z,5.40
2017-07-18T07:11:20.274Z,6.10
2017-07-18T07:13:49.438Z,5.93
2017-07-18T07:16:18.567Z,5.97
2017-07-18T07:18:47.732Z,5.50
2017-07-18T07:21:16.889Z,5.47
2017-07-18T07:23:46.046Z,6.13
2017-07-18T07:26:15.177Z,5.77
2017-07-18T07:28:44.314Z,5.23
2017-07-18T07:31:13.472Z,5.13
2017-07-18T07:33:42.614Z,7.50
2017-07-18T07:36:11.788Z,5.57
2017-07-18T07:38:40.919Z,4.83
2017-07-18T07:41:10.079Z,5.53
2017-07-18T07:43:39.218Z,6.17
2017-07-18T07:46:08.366Z,5.50
2017-07-18T07:48:37.532Z,5.50
2017-07-18T07:51:06.708Z,5.33
2017-07-18T07:53:35.852Z,5.57
2017-07-18T07:56:04.997Z,5.80
2017-07-18T07:58:34.163Z,5.73
2017-07-18T08:01:03.307Z,6.57
2017-07-18T08:03:32.435Z,6.60
2017-07-18T08:06:01.610Z,6.93
2017-07-18T08:08:30.746Z,8.00
2017-07-18T08:10:59.894Z,6.63
2017-07-18T08:13:29.042Z,5.70
2017-07-18T08:15:58.186Z,6.53
2017-07-18T08:18:27.338Z,6.27
2017-07-18T08:20:56.523Z,5.37
2017-07-18T08:23:25.672Z,6.87
2017-07-18T08:25:54.813Z,6.57
2017-07-18T08:28:23.996Z,5.70
2017-07-18T08:30:53.133Z,6.30
2017-07-18T08:33:22.281Z,6.93
2017-07-18T08:35:51.439Z,5.80
2017-07-18T08:38:20.579Z,5.80
2017-07-18T08:40:49.745Z,5.63
2017-07-18T08:43:18.892Z,5.70
2017-07-18T08:45:48.022Z,5.90
2017-07-18T08:48:17.166Z,5.53
2017-07-18T08:50:46.308Z,6.20
2017-07-18T08:53:15.588Z,4.97
2017-07-18T08:55:44.724Z,5.50
2017-07-18T08:58:13.863Z,5.20
2017-07-18T09:00:43.009Z,5.27
2017-07-18T09:03:12.141Z,5.47
2017-07-18T09:05:41.307Z,5.83
2017-07-18T09:08:10.456Z,6.20
2017-07-18T09:10:39.600Z,5.47
2017-07-18T09:13:08.747Z,6.50
2017-07-18T09:15:37.886Z,6.00
2017-07-18T09:18:07.038Z,6.00
2017-07-18T09:20:36.198Z,5.37
2017-07-18T09:23:05.334Z,6.23
2017-07-18T09:25:34.474Z,5.93
2017-07-18T09:28:03.617Z,5.70
2017-07-18T09:30:32.745Z,6.17
2017-07-18T09:33:01.893Z,6.17
2017-07-18T09:35:31.079Z,5.73
2017-07-18T09:38:00.214Z,5.70
2017-07-18T09:40:29.349Z,6.37
2017-07-18T09:42:58.495Z,6.20
2017-07-18T09:45:27.661Z,6.50
2017-07-18T09:47:56.822Z,6.67
2017-07-18T09:50:25.984Z,6.00
2017-07-18T09:52:55.126Z,6.13
2017-07-18T09:55:24.267Z,7.07
2017-07-18T09:57:53.403Z,5.03
2017-07-18T10:00:22.549Z,5.60
2017-07-18T10:02:51.689Z,5.80
2017-07-18T10:05:20.846Z,5.47
2017-07-18T10:07:49.977Z,5.67
2017-07-18T10:10:19.123Z,5.57
2017-07-18T10:12:48.252Z,6.00
2017-07-18T10:15:17.384Z,5.63
2017-07-18T10:17:46.532Z,5.40
2017-07-18T10:20:15.752Z,5.50
2017-07-18T10:22:44.892Z,5.93
2017-07-18T10:25:14.036Z,4.97
2017-07-18T10:27:43.191Z,5.53
2017-07-18T10:30:12.337Z,5.53
2017-07-18T10:32:41.491Z,4.70
2017-07-18T10:35:10.994Z,4.80
2017-07-18T10:37:40.137Z,5.20
2017-07-18T10:40:09.941Z,5.67
2017-07-18T10:42:39.087Z,5.67
2017-07-18T10:45:08.247Z,4.80
2017-07-18T10:47:37.379Z,5.77
2017-07-18T10:50:06.549Z,5.30
2017-07-18T10:52:35.687Z,5.50
2017-07-18T10:55:04.835Z,4.83
2017-07-18T10:57:33.985Z,5.17
2017-07-18T11:00:03.122Z,5.30
2017-07-18T11:02:32.264Z,4.70
2017-07-18T11:05:01.418Z,4.77
2017-07-18T11:07:30.541Z,4.83
2017-07-18T11:09:59.699Z,5.60
2017-07-18T11:12:28.820Z,6.77
2017-07-18T11:14:57.983Z,4.67
2017-07-18T11:17:27.141Z,4.57
2017-07-18T11:19:56.279Z,5.10
2017-07-18T11:22:25.418Z,4.47
2017-07-18T11:24:54.554Z,4.83
2017-07-18T11:27:23.722Z,4.90
2017-07-18T11:29:52.846Z,4.13
2017-07-18T11:32:22.014Z,4.60
2017-07-18T11:34:51.154Z,4.60
2017-07-18T11:37:20.316Z,4.70
2017-07-18T11:39:49.458Z,5.33
2017-07-18T11:42:18.605Z,5.20
2017-07-18T11:44:47.751Z,4.70
2017-07-18T11:47:16.895Z,4.63
2017-07-18T11:49:46.051Z,4.30
2017-07-18T11:52:15.199Z,4.77
2017-07-18T11:54:44.327Z,4.43
2017-07-18T11:57:13.478Z,4.77
2017-07-18T11:59:42.614Z,4.23
2017-07-18T12:02:11.772Z,5.00
2017-07-18T12:04:40.896Z,4.40
2017-07-18T12:07:10.052Z,5.10
2017-07-18T12:09:39.184Z,4.97
2017-07-18T12:12:08.315Z,5.40
2017-07-18T12:14:37.451Z,4.80
2017-07-18T12:17:06.598Z,5.17
2017-07-18T12:19:35.749Z,4.97
2017-07-18T12:22:04.905Z,4.90
2017-07-18T12:24:34.043Z,4.83
2017-07-18T12:27:03.183Z,4.93
2017-07-18T12:29:32.334Z,4.93
2017-07-18T12:32:01.494Z,5.07
2017-07-18T12:34:30.642Z,5.00
2017-07-18T12:36:59.794Z,5.13
2017-07-18T12:39:28.951Z,4.90
2017-07-18T12:41:58.086Z,4.43
2017-07-18T12:44:27.219Z,4.63
2017-07-18T12:46:56.383Z,4.37
2017-07-18T12:49:25.518Z,4.67
2017-07-18T12:51:54.685Z,5.00
2017-07-18T12:54:23.814Z,5.00
2017-07-18T12:56:52.958Z,4.37
2017-07-18T12:59:22.098Z,4.53
2017-07-18T13:01:51.291Z,4.40
2017-07-18T13:04:20.426Z,4.70
2017-07-18T13:06:49.578Z,5.17
2017-07-18T13:09:18.739Z,6.63
2017-07-18T13:11:47.878Z,4.97
2017-07-18T13:14:17.039Z,4.57
2017-07-18T13:16:46.175Z,5.37
2017-07-18T13:19:15.309Z,4.80
2017-07-18T13:21:44.475Z,4.67
2017-07-18T13:24:13.599Z,4.80
2017-07-18T13:26:42.747Z,5.07
2017-07-18T13:29:11.910Z,4.60
2017-07-18T13:31:41.062Z,4.83
2017-07-18T13:34:11.343Z,4.70
2017-07-18T13:36:40.506Z,4.90
2017-07-18T13:39:09.641Z,5.70
2017-07-18T13:41:38.774Z,5.27
2017-07-18T13:44:07.922Z,5.20
2017-07-18T13:46:37.052Z,5.50
2017-07-18T13:49:06.183Z,6.10
2017-07-18T13:51:35.340Z,5.10
2017-07-18T13:54:04.507Z,5.20
2017-07-18T13:56:33.678Z,4.97
2017-07-18T13:59:02.811Z,4.80
2017-07-18T14:01:31.952Z,5.10
2017-07-18T14:04:01.093Z,6.07
2017-07-18T14:06:30.271Z,5.20
2017-07-18T14:08:59.403Z,5.50
2017-07-18T14:11:28.544Z,6.27
2017-07-18T14:13:57.689Z,5.00
2017-07-18T14:16:26.817Z,5.17
2017-07-18T14:18:55.957Z,5.63
2017-07-18T14:21:25.125Z,5.30
2017-07-18T14:23:54.278Z,5.20
2017-07-18T14:26:23.442Z,5.77
2017-07-18T14:28:52.580Z,5.03
2017-07-18T14:31:21.719Z,5.47
2017-07-18T14:33:50.850Z,5.00
2017-07-18T14:36:20.023Z,5.40
2017-07-18T14:38:49.154Z,4.67
2017-07-18T14:41:18.298Z,5.23
2017-07-18T14:43:47.442Z,5.87
2017-07-18T14:46:16.584Z,5.20
2017-07-18T14:48:45.734Z,5.20
2017-07-18T14:51:14.887Z,5.00
2017-07-18T14:53:44.031Z,5.20
2017-07-18T14:56:13.166Z,5.17
2017-07-18T14:58:42.323Z,5.67
2017-07-18T15:01:13.694Z,5.00
2017-07-18T15:03:42.829Z,5.27
2017-07-18T15:06:11.987Z,5.73
2017-07-18T15:08:41.122Z,5.67
2017-07-18T15:11:10.246Z,5.17
2017-07-18T15:13:39.393Z,5.17
2017-07-18T15:16:08.530Z,5.87
2017-07-18T15:18:37.673Z,5.40
2017-07-18T15:21:06.826Z,4.87
2017-07-18T15:23:35.993Z,4.70
2017-07-18T15:26:05.134Z,7.00
2017-07-18T15:28:34.273Z,5.33
2017-07-18T15:31:03.427Z,4.80
2017-07-18T15:33:32.581Z,5.30
2017-07-18T15:36:01.729Z,4.77
2017-07-18T15:38:30.865Z,5.80
2017-07-18T15:41:00.023Z,6.70
2017-07-18T15:43:29.185Z,5.17
2017-07-18T15:45:58.335Z,5.13
2017-07-18T15:48:27.474Z,4.83
2017-07-18T15:50:56.636Z,5.47
2017-07-18T15:53:25.890Z,5.00
2017-07-18T15:55:55.037Z,5.13
2017-07-18T15:58:24.190Z,5.80
2017-07-18T16:00:53.317Z,5.00
2017-07-18T16:03:22.461Z,5.17
2017-07-18T16:05:51.603Z,5.90
2017-07-18T16:08:20.759Z,5.40
2017-07-18T16:10:49.908Z,5.30
2017-07-18T16:13:19.043Z,4.80
2017-07-18T16:15:48.174Z,5.27
2017-07-18T16:18:17.326Z,5.20
2017-07-18T16:20:46.494Z,5.37
2017-07-18T16:23:15.628Z,6.23
2017-07-18T16:25:44.762Z,6.17
2017-07-18T16:28:13.910Z,5.70
2017-07-18T16:30:43.042Z,5.83
2017-07-18T16:33:12.204Z,5.33
2017-07-18T16:35:41.350Z,5.03
2017-07-18T16:38:10.492Z,5.53
2017-07-18T16:40:39.627Z,5.77
2017-07-18T16:43:08.771Z,4.80
2017-07-18T16:45:37.908Z,5.27
2017-07-18T16:48:07.069Z,5.03
2017-07-18T16:50:36.227Z,6.07
2017-07-18T16:53:05.392Z,4.87
2017-07-18T16:55:34.528Z,5.43
2017-07-18T16:58:03.680Z,5.50
2017-07-18T17:00:32.810Z,4.80
2017-07-18T17:03:01.953Z,5.50
2017-07-18T17:05:31.181Z,5.50
2017-07-18T17:08:00.337Z,5.80
2017-07-18T17:10:29.484Z,5.60
2017-07-18T17:12:58.644Z,5.07
2017-07-18T17:15:27.815Z,6.73
2017-07-18T17:17:56.953Z,5.23
2017-07-18T17:20:26.100Z,4.90
2017-07-18T17:22:55.264Z,5.67
2017-07-18T17:25:24.402Z,5.87
2017-07-18T17:27:53.546Z,5.40
2017-07-18T17:30:22.677Z,5.60
2017-07-18T17:32:51.810Z,5.53
2017-07-18T17:35:20.969Z,5.30
2017-07-18T17:37:50.105Z,5.07
2017-07-18T17:40:19.307Z,5.90
2017-07-18T17:42:48.459Z,5.80
2017-07-18T17:45:17.599Z,5.60
2017-07-18T17:47:46.753Z,6.30
2017-07-18T17:50:15.909Z,5.63
2017-07-18T17:52:45.065Z,5.10
2017-07-18T17:55:14.231Z,5.87
2017-07-18T17:57:43.402Z,5.33
2017-07-18T18:00:12.546Z,5.70
2017-07-18T18:02:41.690Z,5.70
2017-07-18T18:05:10.852Z,5.30
2017-07-18T18:07:40.018Z,5.23
2017-07-18T18:10:09.301Z,6.13
2017-07-18T18:12:38.437Z,5.43
2017-07-18T18:15:07.588Z,5.13
2017-07-18T18:17:36.735Z,5.50
2017-07-18T18:20:05.888Z,5.60
2017-07-18T18:22:35.036Z,6.40
2017-07-18T18:25:04.449Z,5.03
2017-07-18T18:27:33.616Z,5.43
2017-07-18T18:30:02.787Z,5.00
2017-07-18T18:32:31.928Z,5.27
2017-07-18T18:35:01.079Z,5.33
2017-07-18T18:37:30.246Z,5.40
2017-07-18T18:39:59.403Z,5.60
2017-07-18T18:42:28.556Z,6.40
2017-07-18T18:44:57.710Z,5.90
2017-07-18T18:47:26.865Z,5.27
2017-07-18T18:49:56.006Z,6.03
2017-07-18T18:52:25.169Z,5.10
2017-07-18T18:54:54.334Z,5.10
2017-07-18T18:57:23.599Z,5.03
2017-07-18T18:59:52.791Z,5.60
2017-07-18T19:02:21.933Z,5.17
2017-07-18T19:04:51.128Z,5.77
2017-07-18T19:07:20.287Z,5.80
2017-07-18T19:09:49.414Z,7.07
2017-07-18T19:12:18.558Z,5.50
2017-07-18T19:14:47.714Z,5.80
2017-07-18T19:17:16.877Z,5.83
2017-07-18T19:19:46.009Z,6.10
2017-07-18T19:22:15.159Z,6.07
2017-07-18T19:24:44.300Z,5.53
2017-07-18T19:27:13.521Z,5.17
2017-07-18T19:29:42.681Z,5.67
2017-07-18T19:32:11.819Z,5.47
2017-07-18T19:34:40.973Z,4.97
2017-07-18T19:37:10.134Z,5.40
2017-07-18T19:39:39.300Z,5.63
2017-07-18T19:42:08.442Z,6.57
2017-07-18T19:44:37.598Z,5.33
2017-07-18T19:47:06.733Z,5.40
2017-07-18T19:49:35.894Z,4.93
2017-07-18T19:52:05.051Z,5.80
2017-07-18T19:54:34.224Z,5.67
2017-07-18T19:57:03.372Z,6.03
2017-07-18T19:59:32.527Z,5.43
2017-07-18T20:02:01.651Z,5.40
2017-07-18T20:04:30.797Z,5.33
2017-07-18T20:06:59.965Z,5.67
2017-07-18T20:09:29.096Z,6.20
2017-07-18T20:11:58.255Z,5.80
2017-07-18T20:14:27.406Z,6.83
2017-07-18T20:16:56.598Z,5.10
2017-07-18T20:19:25.737Z,6.07
2017-07-18T20:21:54.898Z,5.33
2017-07-18T20:24:24.036Z,5.10
2017-07-18T20:26:53.201Z,5.30
2017-07-18T20:29:22.363Z,5.63
2017-07-18T20:31:52.151Z,4.90
2017-07-18T20:34:21.289Z,4.93
2017-07-18T20:36:50.444Z,5.20
2017-07-18T20:39:19.603Z,5.70
2017-07-18T20:41:48.731Z,6.20
2017-07-18T20:44:17.883Z,5.00
2017-07-18T20:46:47.096Z,5.87
2017-07-18T20:49:16.232Z,5.43
2017-07-18T20:51:45.385Z,5.17
2017-07-18T20:54:14.538Z,4.80
2017-07-18T20:56:43.688Z,5.37
2017-07-18T20:59:12.852Z,5.67
2017-07-18T21:01:42.006Z,4.77
2017-07-18T21:04:11.145Z,5.17
2017-07-18T21:06:40.307Z,5.30
2017-07-18T21:09:09.434Z,5.27
2017-07-18T21:11:38.601Z,6.33
2017-07-18T21:14:07.756Z,5.03
2017-07-18T21:16:36.893Z,4.67
2017-07-18T21:19:06.066Z,5.33
2017-07-18T21:21:35.206Z,5.40
2017-07-18T21:24:04.378Z,5.63
2017-07-18T21:26:33.532Z,5.60
2017-07-18T21:29:02.732Z,5.30
2017-07-18T21:31:31.872Z,5.17
2017-07-18T21:34:01.054Z,5.43
2017-07-18T21:36:30.208Z,5.20
2017-07-18T21:38:59.357Z,5.80
2017-07-18T21:41:28.553Z,5.20
2017-07-18T21:43:57.708Z,6.23
2017-07-18T21:46:26.846Z,5.93
2017-07-18T21:48:55.995Z,5.43
2017-07-18T21:51:25.160Z,6.23
2017-07-18T21:53:54.310Z,5.37
2017-07-18T21:56:23.442Z,5.37
2017-07-18T21:58:52.602Z,5.30
2017-07-18T22:01:21.754Z,5.50
2017-07-18T22:03:50.902Z,5.83
2017-07-18T22:06:20.051Z,5.70
2017-07-18T22:08:49.203Z,5.53
2017-07-18T22:11:18.421Z,6.23
2017-07-18T22:13:47.545Z,6.70
2017-07-18T22:16:16.694Z,5.00
2017-07-18T22:18:45.839Z,5.63
2017-07-18T22:21:15.003Z,5.50
2017-07-18T22:23:44.169Z,5.53
2017-07-18T22:26:13.310Z,5.50
2017-07-18T22:28:42.468Z,5.90
2017-07-18T22:31:11.614Z,5.60
2017-07-18T22:33:40.754Z,6.10
2017-07-18T22:36:09.930Z,6.07
2017-07-18T22:38:39.064Z,5.40
2017-07-18T22:41:08.214Z,5.97
2017-07-18T22:43:37.357Z,6.40
2017-07-18T22:46:06.499Z,6.53
2017-07-18T22:48:35.630Z,6.10
2017-07-18T22:51:04.807Z,6.53
2017-07-18T22:53:33.955Z,5.40
2017-07-18T22:56:03.083Z,7.03
2017-07-18T22:58:32.225Z,5.73
2017-07-18T23:01:01.395Z,5.73
2017-07-18T23:03:30.530Z,6.13
2017-07-18T23:05:59.698Z,6.33
2017-07-18T23:08:28.822Z,6.33
2017-07-18T23:10:57.986Z,6.03
2017-07-18T23:13:27.137Z,6.50
2017-07-18T23:15:56.270Z,6.67
2017-07-18T23:18:25.414Z,6.67
2017-07-18T23:20:54.590Z,6.60
2017-07-18T23:23:23.731Z,6.37
2017-07-18T23:25:52.883Z,6.43
2017-07-18T23:28:22.016Z,5.60
2017-07-18T23:30:51.178Z,5.63
2017-07-18T23:33:20.325Z,7.30
2017-07-18T23:35:49.465Z,6.67
2017-07-18T23:38:18.609Z,6.60
2017-07-18T23:40:47.764Z,6.97
2017-07-18T23:43:16.917Z,6.27
2017-07-18T23:45:46.062Z,6.30
2017-07-18T23:48:15.213Z,6.60
2017-07-18T23:50:44.377Z,7.20
2017-07-18T23:53:13.510Z,7.70
2017-07-18T23:55:42.677Z,6.90
2017-07-18T23:58:11.825Z,6.90
